sensor_id;sensor_type;location;lat;lon;timestamp;P1;durP1;ratioP1;P2;durP2;ratioP2
42364;SDS011;28498;54.400;18.566;2023-04-19T00:00:11;7.60;;;3.20;;
42364;SDS011;28498;54.400;18.566;2023-04-19T00:02:40;8.88;;;3.33;;
42364;SDS011;28498;54.400;18.566;2023-04-19T00:05:08;9.73;;;3.30;;
42364;SDS011;28498;54.400;18.566;2023-04-19T00:07:37;9.10;;;4.60;;
42364;SDS011;28498;54.400;18.566;2023-04-19T00:10:04;7.35;;;3.85;;
42364;SDS011;28498;54.400;18.566;2023-04-19T00:12:33;7.22;;;3.10;;
42364;SDS011;28498;54.400;18.566;2023-04-19T00:15:00;10.10;;;3.25;;
42364;SDS011;28498;54.400;18.566;2023-04-19T00:17:27;7.85;;;3.22;;
42364;SDS011;28498;54.400;18.566;2023-04-19T00:19:54;8.32;;;3.47;;
42364;SDS011;28498;54.400;18.566;2023-04-19T00:22:22;10.73;;;3.20;;
42364;SDS011;28498;54.400;18.566;2023-04-19T00:24:49;7.38;;;3.00;;
42364;SDS011;28498;54.400;18.566;2023-04-19T00:27:16;6.30;;;2.83;;
42364;SDS011;28498;54.400;18.566;2023-04-19T00:29:43;7.78;;;3.20;;
42364;SDS011;28498;54.400;18.566;2023-04-19T00:32:10;7.05;;;2.85;;
42364;SDS011;28498;54.400;18.566;2023-04-19T00:34:37;9.90;;;3.50;;
42364;SDS011;28498;54.400;18.566;2023-04-19T00:37:04;13.90;;;3.90;;
42364;SDS011;28498;54.400;18.566;2023-04-19T00:39:31;9.55;;;4.10;;
42364;SDS011;28498;54.400;18.566;2023-04-19T00:41:58;8.57;;;3.50;;
42364;SDS011;28498;54.400;18.566;2023-04-19T00:44:25;8.48;;;3.20;;
42364;SDS011;28498;54.400;18.566;2023-04-19T00:46:52;9.88;;;3.03;;
42364;SDS011;28498;54.400;18.566;2023-04-19T00:49:21;6.85;;;3.50;;
42364;SDS011;28498;54.400;18.566;2023-04-19T00:51:49;11.38;;;3.75;;
42364;SDS011;28498;54.400;18.566;2023-04-19T00:54:17;8.07;;;3.85;;
42364;SDS011;28498;54.400;18.566;2023-04-19T00:56:44;5.93;;;2.88;;
42364;SDS011;28498;54.400;18.566;2023-04-19T00:59:13;10.13;;;3.67;;
42364;SDS011;28498;54.400;18.566;2023-04-19T01:01:41;7.93;;;3.25;;
42364;SDS011;28498;54.400;18.566;2023-04-19T01:04:08;9.43;;;3.30;;
42364;SDS011;28498;54.400;18.566;2023-04-19T01:06:35;13.50;;;3.90;;
42364;SDS011;28498;54.400;18.566;2023-04-19T01:09:05;11.18;;;4.28;;
42364;SDS011;28498;54.400;18.566;2023-04-19T01:11:32;8.65;;;3.50;;
42364;SDS011;28498;54.400;18.566;2023-04-19T01:13:59;11.65;;;3.65;;
42364;SDS011;28498;54.400;18.566;2023-04-19T01:16:26;13.27;;;3.95;;
42364;SDS011;28498;54.400;18.566;2023-04-19T01:18:54;10.27;;;3.47;;
42364;SDS011;28498;54.400;18.566;2023-04-19T01:21:21;8.88;;;3.65;;
42364;SDS011;28498;54.400;18.566;2023-04-19T01:23:48;12.32;;;3.85;;
42364;SDS011;28498;54.400;18.566;2023-04-19T01:26:16;12.70;;;3.90;;
42364;SDS011;28498;54.400;18.566;2023-04-19T01:28:44;7.30;;;3.75;;
42364;SDS011;28498;54.400;18.566;2023-04-19T01:31:11;14.90;;;4.50;;
42364;SDS011;28498;54.400;18.566;2023-04-19T01:33:38;9.95;;;3.70;;
42364;SDS011;28498;54.400;18.566;2023-04-19T01:36:05;10.32;;;3.22;;
42364;SDS011;28498;54.400;18.566;2023-04-19T01:38:32;11.20;;;4.38;;
42364;SDS011;28498;54.400;18.566;2023-04-19T01:41:00;8.02;;;3.28;;
42364;SDS011;28498;54.400;18.566;2023-04-19T01:43:27;8.10;;;3.60;;
42364;SDS011;28498;54.400;18.566;2023-04-19T01:45:54;12.05;;;3.40;;
42364;SDS011;28498;54.400;18.566;2023-04-19T01:48:21;11.60;;;4.30;;
42364;SDS011;28498;54.400;18.566;2023-04-19T01:50:48;8.48;;;3.53;;
42364;SDS011;28498;54.400;18.566;2023-04-19T01:53:15;10.02;;;3.58;;
42364;SDS011;28498;54.400;18.566;2023-04-19T01:55:42;8.35;;;3.47;;
42364;SDS011;28498;54.400;18.566;2023-04-19T01:58:09;7.32;;;3.63;;
42364;SDS011;28498;54.400;18.566;2023-04-19T02:00:36;10.27;;;4.35;;
42364;SDS011;28498;54.400;18.566;2023-04-19T02:03:03;13.52;;;4.82;;
42364;SDS011;28498;54.400;18.566;2023-04-19T02:05:30;9.38;;;3.50;;
42364;SDS011;28498;54.400;18.566;2023-04-19T02:07:57;9.63;;;3.95;;
42364;SDS011;28498;54.400;18.566;2023-04-19T02:10:24;10.38;;;4.35;;
42364;SDS011;28498;54.400;18.566;2023-04-19T02:12:51;9.18;;;3.78;;
42364;SDS011;28498;54.400;18.566;2023-04-19T02:15:18;8.88;;;3.95;;
42364;SDS011;28498;54.400;18.566;2023-04-19T02:17:45;6.57;;;3.58;;
42364;SDS011;28498;54.400;18.566;2023-04-19T02:20:12;10.90;;;3.75;;
42364;SDS011;28498;54.400;18.566;2023-04-19T02:22:39;10.93;;;4.55;;
42364;SDS011;28498;54.400;18.566;2023-04-19T02:25:06;7.88;;;4.00;;
42364;SDS011;28498;54.400;18.566;2023-04-19T02:27:33;10.70;;;4.00;;
42364;SDS011;28498;54.400;18.566;2023-04-19T02:30:00;9.00;;;3.97;;
42364;SDS011;28498;54.400;18.566;2023-04-19T02:32:27;11.80;;;3.97;;
42364;SDS011;28498;54.400;18.566;2023-04-19T02:34:54;12.45;;;4.78;;
42364;SDS011;28498;54.400;18.566;2023-04-19T02:37:21;15.48;;;4.57;;
42364;SDS011;28498;54.400;18.566;2023-04-19T02:39:48;8.73;;;4.10;;
42364;SDS011;28498;54.400;18.566;2023-04-19T02:42:15;12.25;;;3.92;;
42364;SDS011;28498;54.400;18.566;2023-04-19T02:44:42;8.70;;;3.60;;
42364;SDS011;28498;54.400;18.566;2023-04-19T02:47:09;13.15;;;4.05;;
42364;SDS011;28498;54.400;18.566;2023-04-19T02:49:36;14.43;;;4.50;;
42364;SDS011;28498;54.400;18.566;2023-04-19T02:52:06;13.05;;;3.80;;
42364;SDS011;28498;54.400;18.566;2023-04-19T02:54:34;13.85;;;3.50;;
42364;SDS011;28498;54.400;18.566;2023-04-19T02:57:01;10.13;;;3.67;;
42364;SDS011;28498;54.400;18.566;2023-04-19T02:59:28;14.95;;;4.43;;
42364;SDS011;28498;54.400;18.566;2023-04-19T03:01:54;11.48;;;3.92;;
42364;SDS011;28498;54.400;18.566;2023-04-19T03:04:22;13.73;;;3.75;;
42364;SDS011;28498;54.400;18.566;2023-04-19T03:06:49;9.05;;;4.18;;
42364;SDS011;28498;54.400;18.566;2023-04-19T03:09:17;12.82;;;4.55;;
42364;SDS011;28498;54.400;18.566;2023-04-19T03:11:44;10.40;;;3.72;;
42364;SDS011;28498;54.400;18.566;2023-04-19T03:14:11;8.55;;;3.90;;
42364;SDS011;28498;54.400;18.566;2023-04-19T03:16:38;14.20;;;4.47;;
42364;SDS011;28498;54.400;18.566;2023-04-19T03:19:06;11.50;;;4.00;;
42364;SDS011;28498;54.400;18.566;2023-04-19T03:21:33;11.80;;;4.28;;
42364;SDS011;28498;54.400;18.566;2023-04-19T03:24:00;9.75;;;3.70;;
42364;SDS011;28498;54.400;18.566;2023-04-19T03:26:27;11.23;;;4.68;;
42364;SDS011;28498;54.400;18.566;2023-04-19T03:28:54;7.80;;;4.10;;
42364;SDS011;28498;54.400;18.566;2023-04-19T03:31:21;9.23;;;4.00;;
42364;SDS011;28498;54.400;18.566;2023-04-19T03:33:48;9.82;;;3.67;;
42364;SDS011;28498;54.400;18.566;2023-04-19T03:36:15;7.25;;;3.35;;
42364;SDS011;28498;54.400;18.566;2023-04-19T03:38:42;9.88;;;4.47;;
42364;SDS011;28498;54.400;18.566;2023-04-19T03:41:25;11.75;;;4.15;;
42364;SDS011;28498;54.400;18.566;2023-04-19T03:43:52;7.82;;;3.60;;
42364;SDS011;28498;54.400;18.566;2023-04-19T03:46:19;10.48;;;4.32;;
42364;SDS011;28498;54.400;18.566;2023-04-19T03:48:46;11.00;;;4.72;;
42364;SDS011;28498;54.400;18.566;2023-04-19T03:51:13;10.93;;;4.13;;
42364;SDS011;28498;54.400;18.566;2023-04-19T03:53:41;7.32;;;3.70;;
42364;SDS011;28498;54.400;18.566;2023-04-19T03:56:08;10.20;;;4.15;;
42364;SDS011;28498;54.400;18.566;2023-04-19T03:58:35;9.55;;;3.95;;
42364;SDS011;28498;54.400;18.566;2023-04-19T04:01:02;9.82;;;4.70;;
42364;SDS011;28498;54.400;18.566;2023-04-19T04:03:29;8.75;;;3.70;;
42364;SDS011;28498;54.400;18.566;2023-04-19T04:05:57;8.23;;;4.82;;
42364;SDS011;28498;54.400;18.566;2023-04-19T04:08:24;10.20;;;3.53;;
42364;SDS011;28498;54.400;18.566;2023-04-19T04:10:52;11.63;;;4.35;;
42364;SDS011;28498;54.400;18.566;2023-04-19T04:13:19;6.00;;;3.58;;
42364;SDS011;28498;54.400;18.566;2023-04-19T04:15:46;7.05;;;3.13;;
42364;SDS011;28498;54.400;18.566;2023-04-19T04:18:13;8.50;;;3.65;;
42364;SDS011;28498;54.400;18.566;2023-04-19T04:23:27;9.30;;;3.60;;
42364;SDS011;28498;54.400;18.566;2023-04-19T04:25:57;11.82;;;3.92;;
42364;SDS011;28498;54.400;18.566;2023-04-19T04:28:29;9.57;;;3.70;;
42364;SDS011;28498;54.400;18.566;2023-04-19T04:30:56;8.18;;;3.40;;
42364;SDS011;28498;54.400;18.566;2023-04-19T04:33:24;7.38;;;3.45;;
42364;SDS011;28498;54.400;18.566;2023-04-19T04:35:53;10.68;;;3.63;;
42364;SDS011;28498;54.400;18.566;2023-04-19T04:38:21;8.20;;;3.58;;
42364;SDS011;28498;54.400;18.566;2023-04-19T04:40:51;8.40;;;3.90;;
42364;SDS011;28498;54.400;18.566;2023-04-19T04:43:22;10.23;;;3.33;;
42364;SDS011;28498;54.400;18.566;2023-04-19T04:45:51;7.45;;;3.70;;
42364;SDS011;28498;54.400;18.566;2023-04-19T04:48:21;8.45;;;3.38;;
42364;SDS011;28498;54.400;18.566;2023-04-19T04:50:48;8.93;;;4.10;;
42364;SDS011;28498;54.400;18.566;2023-04-19T04:53:15;8.18;;;2.97;;
42364;SDS011;28498;54.400;18.566;2023-04-19T04:55:41;11.15;;;4.03;;
42364;SDS011;28498;54.400;18.566;2023-04-19T04:58:08;11.02;;;3.47;;
42364;SDS011;28498;54.400;18.566;2023-04-19T05:00:35;7.10;;;3.78;;
42364;SDS011;28498;54.400;18.566;2023-04-19T05:03:02;10.80;;;4.32;;
42364;SDS011;28498;54.400;18.566;2023-04-19T05:05:30;8.93;;;3.40;;
42364;SDS011;28498;54.400;18.566;2023-04-19T05:07:56;10.60;;;3.50;;
42364;SDS011;28498;54.400;18.566;2023-04-19T05:10:24;7.65;;;3.85;;
42364;SDS011;28498;54.400;18.566;2023-04-19T05:12:51;6.93;;;3.67;;
42364;SDS011;28498;54.400;18.566;2023-04-19T05:15:18;6.70;;;3.53;;
42364;SDS011;28498;54.400;18.566;2023-04-19T05:17:45;9.25;;;3.35;;
42364;SDS011;28498;54.400;18.566;2023-04-19T05:20:12;8.20;;;3.40;;
42364;SDS011;28498;54.400;18.566;2023-04-19T05:22:39;8.15;;;3.47;;
42364;SDS011;28498;54.400;18.566;2023-04-19T05:25:06;7.95;;;3.53;;
42364;SDS011;28498;54.400;18.566;2023-04-19T05:27:35;7.45;;;4.57;;
42364;SDS011;28498;54.400;18.566;2023-04-19T05:30:02;8.82;;;3.90;;
42364;SDS011;28498;54.400;18.566;2023-04-19T05:32:31;7.95;;;3.83;;
42364;SDS011;28498;54.400;18.566;2023-04-19T05:34:58;12.63;;;4.53;;
42364;SDS011;28498;54.400;18.566;2023-04-19T05:37:25;7.43;;;3.47;;
42364;SDS011;28498;54.400;18.566;2023-04-19T05:39:52;8.80;;;3.38;;
42364;SDS011;28498;54.400;18.566;2023-04-19T05:42:19;10.52;;;3.60;;
42364;SDS011;28498;54.400;18.566;2023-04-19T05:44:46;10.63;;;3.28;;
42364;SDS011;28498;54.400;18.566;2023-04-19T05:47:13;8.70;;;3.83;;
42364;SDS011;28498;54.400;18.566;2023-04-19T05:49:40;14.05;;;3.80;;
42364;SDS011;28498;54.400;18.566;2023-04-19T05:52:08;8.77;;;3.78;;
42364;SDS011;28498;54.400;18.566;2023-04-19T05:54:35;11.30;;;3.42;;
42364;SDS011;28498;54.400;18.566;2023-04-19T05:57:02;8.35;;;3.00;;
42364;SDS011;28498;54.400;18.566;2023-04-19T05:59:29;6.93;;;3.58;;
42364;SDS011;28498;54.400;18.566;2023-04-19T06:01:56;6.65;;;3.25;;
42364;SDS011;28498;54.400;18.566;2023-04-19T06:04:24;7.85;;;3.28;;
42364;SDS011;28498;54.400;18.566;2023-04-19T06:06:51;10.90;;;3.53;;
42364;SDS011;28498;54.400;18.566;2023-04-19T06:09:18;6.47;;;3.72;;
42364;SDS011;28498;54.400;18.566;2023-04-19T06:11:45;9.15;;;3.25;;
42364;SDS011;28498;54.400;18.566;2023-04-19T06:14:16;10.15;;;3.53;;
42364;SDS011;28498;54.400;18.566;2023-04-19T06:16:44;7.97;;;3.08;;
42364;SDS011;28498;54.400;18.566;2023-04-19T06:19:11;7.00;;;2.95;;
42364;SDS011;28498;54.400;18.566;2023-04-19T06:21:38;7.05;;;2.55;;
42364;SDS011;28498;54.400;18.566;2023-04-19T06:24:06;7.38;;;2.95;;
42364;SDS011;28498;54.400;18.566;2023-04-19T06:26:33;7.43;;;2.97;;
42364;SDS011;28498;54.400;18.566;2023-04-19T06:29:00;9.35;;;3.72;;
42364;SDS011;28498;54.400;18.566;2023-04-19T06:31:27;8.27;;;2.97;;
42364;SDS011;28498;54.400;18.566;2023-04-19T06:33:54;7.03;;;3.55;;
42364;SDS011;28498;54.400;18.566;2023-04-19T06:36:21;8.52;;;3.40;;
42364;SDS011;28498;54.400;18.566;2023-04-19T06:38:48;7.13;;;2.97;;
42364;SDS011;28498;54.400;18.566;2023-04-19T06:41:15;10.82;;;3.80;;
42364;SDS011;28498;54.400;18.566;2023-04-19T06:43:43;7.45;;;3.25;;
42364;SDS011;28498;54.400;18.566;2023-04-19T06:46:10;5.70;;;3.38;;
42364;SDS011;28498;54.400;18.566;2023-04-19T06:48:39;8.00;;;3.13;;
42364;SDS011;28498;54.400;18.566;2023-04-19T06:51:06;8.15;;;3.13;;
42364;SDS011;28498;54.400;18.566;2023-04-19T06:53:33;6.78;;;3.80;;
42364;SDS011;28498;54.400;18.566;2023-04-19T06:56:02;8.32;;;3.05;;
42364;SDS011;28498;54.400;18.566;2023-04-19T06:58:30;6.95;;;4.50;;
42364;SDS011;28498;54.400;18.566;2023-04-19T07:01:02;11.63;;;3.80;;
42364;SDS011;28498;54.400;18.566;2023-04-19T07:03:30;8.02;;;3.38;;
42364;SDS011;28498;54.400;18.566;2023-04-19T07:05:57;8.35;;;3.72;;
42364;SDS011;28498;54.400;18.566;2023-04-19T07:08:25;6.78;;;3.15;;
42364;SDS011;28498;54.400;18.566;2023-04-19T07:11:04;11.70;;;4.32;;
42364;SDS011;28498;54.400;18.566;2023-04-19T07:13:31;19.83;;;8.05;;
42364;SDS011;28498;54.400;18.566;2023-04-19T07:15:58;10.13;;;5.32;;
42364;SDS011;28498;54.400;18.566;2023-04-19T07:18:25;8.07;;;4.38;;
42364;SDS011;28498;54.400;18.566;2023-04-19T07:20:52;11.13;;;3.03;;
42364;SDS011;28498;54.400;18.566;2023-04-19T07:23:19;7.57;;;3.55;;
42364;SDS011;28498;54.400;18.566;2023-04-19T07:25:46;10.13;;;3.50;;
42364;SDS011;28498;54.400;18.566;2023-04-19T07:28:13;7.88;;;3.42;;
42364;SDS011;28498;54.400;18.566;2023-04-19T07:30:41;8.57;;;3.92;;
42364;SDS011;28498;54.400;18.566;2023-04-19T07:33:11;10.18;;;3.95;;
42364;SDS011;28498;54.400;18.566;2023-04-19T07:35:38;7.30;;;3.20;;
42364;SDS011;28498;54.400;18.566;2023-04-19T07:38:05;8.50;;;3.65;;
42364;SDS011;28498;54.400;18.566;2023-04-19T07:40:32;11.80;;;4.65;;
42364;SDS011;28498;54.400;18.566;2023-04-19T07:42:59;9.48;;;4.10;;
42364;SDS011;28498;54.400;18.566;2023-04-19T07:45:26;8.13;;;3.72;;
42364;SDS011;28498;54.400;18.566;2023-04-19T07:47:55;10.23;;;4.30;;
42364;SDS011;28498;54.400;18.566;2023-04-19T07:50:23;5.65;;;3.28;;
42364;SDS011;28498;54.400;18.566;2023-04-19T07:52:52;7.15;;;3.50;;
42364;SDS011;28498;54.400;18.566;2023-04-19T07:55:19;7.63;;;3.85;;
42364;SDS011;28498;54.400;18.566;2023-04-19T07:57:46;9.65;;;3.03;;
42364;SDS011;28498;54.400;18.566;2023-04-19T08:00:14;10.98;;;3.70;;
42364;SDS011;28498;54.400;18.566;2023-04-19T08:02:43;7.45;;;3.13;;
42364;SDS011;28498;54.400;18.566;2023-04-19T08:05:12;12.43;;;4.70;;
42364;SDS011;28498;54.400;18.566;2023-04-19T08:07:39;7.80;;;3.30;;
42364;SDS011;28498;54.400;18.566;2023-04-19T08:10:07;10.15;;;3.50;;
42364;SDS011;28498;54.400;18.566;2023-04-19T08:12:34;6.80;;;3.17;;
42364;SDS011;28498;54.400;18.566;2023-04-19T08:15:15;8.07;;;3.70;;
42364;SDS011;28498;54.400;18.566;2023-04-19T08:18:02;7.47;;;3.60;;
42364;SDS011;28498;54.400;18.566;2023-04-19T08:20:30;9.95;;;4.00;;
42364;SDS011;28498;54.400;18.566;2023-04-19T08:22:58;7.43;;;3.83;;
42364;SDS011;28498;54.400;18.566;2023-04-19T08:25:35;7.53;;;3.47;;
42364;SDS011;28498;54.400;18.566;2023-04-19T08:28:03;10.68;;;3.85;;
42364;SDS011;28498;54.400;18.566;2023-04-19T08:30:30;6.90;;;3.22;;
42364;SDS011;28498;54.400;18.566;2023-04-19T08:32:57;8.88;;;4.13;;
42364;SDS011;28498;54.400;18.566;2023-04-19T08:35:24;12.13;;;3.38;;
42364;SDS011;28498;54.400;18.566;2023-04-19T08:37:52;11.95;;;4.25;;
42364;SDS011;28498;54.400;18.566;2023-04-19T08:40:18;7.72;;;3.70;;
42364;SDS011;28498;54.400;18.566;2023-04-19T08:42:46;10.32;;;4.82;;
42364;SDS011;28498;54.400;18.566;2023-04-19T08:45:13;7.10;;;3.10;;
42364;SDS011;28498;54.400;18.566;2023-04-19T08:47:53;6.57;;;2.95;;
42364;SDS011;28498;54.400;18.566;2023-04-19T08:50:27;10.02;;;3.72;;
42364;SDS011;28498;54.400;18.566;2023-04-19T08:53:11;9.55;;;3.85;;
42364;SDS011;28498;54.400;18.566;2023-04-19T08:55:41;8.77;;;3.40;;
42364;SDS011;28498;54.400;18.566;2023-04-19T08:58:24;9.85;;;3.90;;
42364;SDS011;28498;54.400;18.566;2023-04-19T09:01:12;7.22;;;4.22;;
42364;SDS011;28498;54.400;18.566;2023-04-19T09:03:56;10.20;;;3.63;;
42364;SDS011;28498;54.400;18.566;2023-04-19T09:06:41;7.93;;;3.33;;
42364;SDS011;28498;54.400;18.566;2023-04-19T09:09:13;8.50;;;3.20;;
42364;SDS011;28498;54.400;18.566;2023-04-19T09:11:47;7.63;;;3.40;;
42364;SDS011;28498;54.400;18.566;2023-04-19T09:14:15;9.63;;;3.38;;
42364;SDS011;28498;54.400;18.566;2023-04-19T09:16:43;7.45;;;3.72;;
42364;SDS011;28498;54.400;18.566;2023-04-19T09:19:10;9.80;;;3.97;;
42364;SDS011;28498;54.400;18.566;2023-04-19T09:21:49;7.68;;;3.85;;
42364;SDS011;28498;54.400;18.566;2023-04-19T09:24:35;10.05;;;4.32;;
42364;SDS011;28498;54.400;18.566;2023-04-19T09:27:25;11.73;;;4.27;;
42364;SDS011;28498;54.400;18.566;2023-04-19T09:29:54;11.25;;;5.07;;
42364;SDS011;28498;54.400;18.566;2023-04-19T09:32:23;8.73;;;4.18;;
42364;SDS011;28498;54.400;18.566;2023-04-19T09:34:51;10.25;;;4.35;;
42364;SDS011;28498;54.400;18.566;2023-04-19T09:37:20;11.20;;;5.15;;
42364;SDS011;28498;54.400;18.566;2023-04-19T09:40:21;11.75;;;5.07;;
42364;SDS011;28498;54.400;18.566;2023-04-19T09:42:48;8.02;;;4.47;;
42364;SDS011;28498;54.400;18.566;2023-04-19T09:45:18;12.05;;;4.95;;
42364;SDS011;28498;54.400;18.566;2023-04-19T09:47:59;12.88;;;5.15;;
42364;SDS011;28498;54.400;18.566;2023-04-19T09:50:31;11.45;;;6.15;;
42364;SDS011;28498;54.400;18.566;2023-04-19T09:53:04;11.73;;;4.80;;
42364;SDS011;28498;54.400;18.566;2023-04-19T09:55:31;12.43;;;5.25;;
42364;SDS011;28498;54.400;18.566;2023-04-19T09:58:22;14.85;;;6.13;;
42364;SDS011;28498;54.400;18.566;2023-04-19T10:00:54;12.23;;;6.18;;
42364;SDS011;28498;54.400;18.566;2023-04-19T10:03:39;16.42;;;5.97;;
42364;SDS011;28498;54.400;18.566;2023-04-19T10:06:06;14.00;;;5.45;;
42364;SDS011;28498;54.400;18.566;2023-04-19T10:08:45;15.18;;;5.50;;
42364;SDS011;28498;54.400;18.566;2023-04-19T10:11:15;13.77;;;6.15;;
42364;SDS011;28498;54.400;18.566;2023-04-19T10:13:43;12.63;;;6.35;;
42364;SDS011;28498;54.400;18.566;2023-04-19T10:16:12;18.27;;;6.47;;
42364;SDS011;28498;54.400;18.566;2023-04-19T10:18:45;18.50;;;6.78;;
42364;SDS011;28498;54.400;18.566;2023-04-19T10:21:15;16.70;;;6.88;;
42364;SDS011;28498;54.400;18.566;2023-04-19T10:23:44;12.20;;;6.57;;
42364;SDS011;28498;54.400;18.566;2023-04-19T10:26:13;17.73;;;6.65;;
42364;SDS011;28498;54.400;18.566;2023-04-19T10:28:40;12.95;;;6.50;;
42364;SDS011;28498;54.400;18.566;2023-04-19T10:31:10;15.98;;;6.30;;
42364;SDS011;28498;54.400;18.566;2023-04-19T10:33:41;15.50;;;6.35;;
42364;SDS011;28498;54.400;18.566;2023-04-19T10:36:09;14.70;;;6.90;;
42364;SDS011;28498;54.400;18.566;2023-04-19T10:41:17;14.30;;;6.63;;
42364;SDS011;28498;54.400;18.566;2023-04-19T10:43:45;14.65;;;6.40;;
42364;SDS011;28498;54.400;18.566;2023-04-19T10:48:52;15.50;;;6.90;;
42364;SDS011;28498;54.400;18.566;2023-04-19T10:51:31;17.58;;;7.90;;
42364;SDS011;28498;54.400;18.566;2023-04-19T10:54:05;19.38;;;8.00;;
42364;SDS011;28498;54.400;18.566;2023-04-19T11:01:31;14.38;;;7.53;;
42364;SDS011;28498;54.400;18.566;2023-04-19T11:04:06;18.05;;;7.60;;
42364;SDS011;28498;54.400;18.566;2023-04-19T11:06:34;17.65;;;7.40;;
42364;SDS011;28498;54.400;18.566;2023-04-19T11:09:02;19.23;;;7.13;;
42364;SDS011;28498;54.400;18.566;2023-04-19T11:11:35;15.85;;;7.85;;
42364;SDS011;28498;54.400;18.566;2023-04-19T11:14:02;16.33;;;7.32;;
42364;SDS011;28498;54.400;18.566;2023-04-19T11:16:29;17.42;;;6.95;;
42364;SDS011;28498;54.400;18.566;2023-04-19T11:19:03;16.98;;;8.27;;
42364;SDS011;28498;54.400;18.566;2023-04-19T11:21:30;15.55;;;7.57;;
42364;SDS011;28498;54.400;18.566;2023-04-19T11:26:34;21.23;;;7.28;;
42364;SDS011;28498;54.400;18.566;2023-04-19T11:29:02;18.55;;;7.70;;
42364;SDS011;28498;54.400;18.566;2023-04-19T11:31:32;17.52;;;7.82;;
42364;SDS011;28498;54.400;18.566;2023-04-19T11:33:59;23.83;;;10.05;;
42364;SDS011;28498;54.400;18.566;2023-04-19T11:36:29;21.15;;;8.25;;
42364;SDS011;28498;54.400;18.566;2023-04-19T11:38:57;18.77;;;7.30;;
42364;SDS011;28498;54.400;18.566;2023-04-19T11:41:24;13.65;;;6.80;;
42364;SDS011;28498;54.400;18.566;2023-04-19T11:43:51;18.83;;;8.63;;
42364;SDS011;28498;54.400;18.566;2023-04-19T11:46:18;16.23;;;8.23;;
42364;SDS011;28498;54.400;18.566;2023-04-19T11:48:51;16.75;;;6.97;;
42364;SDS011;28498;54.400;18.566;2023-04-19T11:51:20;15.95;;;7.45;;
42364;SDS011;28498;54.400;18.566;2023-04-19T11:53:47;16.35;;;6.05;;
42364;SDS011;28498;54.400;18.566;2023-04-19T11:56:14;16.00;;;5.88;;
42364;SDS011;28498;54.400;18.566;2023-04-19T11:58:42;14.32;;;6.40;;
42364;SDS011;28498;54.400;18.566;2023-04-19T12:01:11;12.43;;;6.47;;
42364;SDS011;28498;54.400;18.566;2023-04-19T12:03:45;17.13;;;5.80;;
42364;SDS011;28498;54.400;18.566;2023-04-19T12:06:26;23.00;;;6.32;;
42364;SDS011;28498;54.400;18.566;2023-04-19T12:08:55;12.30;;;6.53;;
42364;SDS011;28498;54.400;18.566;2023-04-19T12:11:40;16.45;;;5.55;;
42364;SDS011;28498;54.400;18.566;2023-04-19T12:14:13;16.33;;;7.47;;
42364;SDS011;28498;54.400;18.566;2023-04-19T12:16:41;12.77;;;6.22;;
42364;SDS011;28498;54.400;18.566;2023-04-19T12:19:10;13.90;;;6.10;;
42364;SDS011;28498;54.400;18.566;2023-04-19T12:21:46;14.18;;;5.50;;
42364;SDS011;28498;54.400;18.566;2023-04-19T12:24:16;13.65;;;5.57;;
42364;SDS011;28498;54.400;18.566;2023-04-19T12:26:53;16.00;;;6.65;;
42364;SDS011;28498;54.400;18.566;2023-04-19T12:29:22;21.02;;;7.28;;
42364;SDS011;28498;54.400;18.566;2023-04-19T12:31:49;17.20;;;6.35;;
42364;SDS011;28498;54.400;18.566;2023-04-19T12:34:16;15.70;;;6.20;;
42364;SDS011;28498;54.400;18.566;2023-04-19T12:36:43;12.07;;;5.07;;
42364;SDS011;28498;54.400;18.566;2023-04-19T12:39:10;13.43;;;5.35;;
42364;SDS011;28498;54.400;18.566;2023-04-19T12:41:37;15.43;;;5.40;;
42364;SDS011;28498;54.400;18.566;2023-04-19T12:44:04;11.52;;;4.90;;
42364;SDS011;28498;54.400;18.566;2023-04-19T12:46:31;14.30;;;4.60;;
42364;SDS011;28498;54.400;18.566;2023-04-19T12:48:58;14.20;;;4.18;;
42364;SDS011;28498;54.400;18.566;2023-04-19T12:51:25;12.32;;;5.25;;
42364;SDS011;28498;54.400;18.566;2023-04-19T12:53:53;11.50;;;3.85;;
42364;SDS011;28498;54.400;18.566;2023-04-19T12:56:20;6.70;;;3.25;;
42364;SDS011;28498;54.400;18.566;2023-04-19T12:58:47;9.73;;;3.80;;
42364;SDS011;28498;54.400;18.566;2023-04-19T13:01:14;8.65;;;3.85;;
42364;SDS011;28498;54.400;18.566;2023-04-19T13:03:41;10.50;;;4.00;;
42364;SDS011;28498;54.400;18.566;2023-04-19T13:06:08;7.93;;;3.78;;
42364;SDS011;28498;54.400;18.566;2023-04-19T13:08:39;8.68;;;3.97;;
42364;SDS011;28498;54.400;18.566;2023-04-19T13:11:13;8.45;;;3.60;;
42364;SDS011;28498;54.400;18.566;2023-04-19T13:13:41;12.98;;;4.43;;
42364;SDS011;28498;54.400;18.566;2023-04-19T13:16:08;12.80;;;4.53;;
42364;SDS011;28498;54.400;18.566;2023-04-19T13:18:35;9.10;;;4.22;;
42364;SDS011;28498;54.400;18.566;2023-04-19T13:21:02;8.40;;;3.80;;
42364;SDS011;28498;54.400;18.566;2023-04-19T13:23:31;8.18;;;3.92;;
42364;SDS011;28498;54.400;18.566;2023-04-19T13:25:58;10.07;;;4.68;;
42364;SDS011;28498;54.400;18.566;2023-04-19T13:28:25;7.55;;;4.13;;
42364;SDS011;28498;54.400;18.566;2023-04-19T13:30:52;13.73;;;4.25;;
42364;SDS011;28498;54.400;18.566;2023-04-19T13:33:19;10.13;;;4.55;;
42364;SDS011;28498;54.400;18.566;2023-04-19T13:35:46;9.40;;;4.00;;
42364;SDS011;28498;54.400;18.566;2023-04-19T13:38:13;18.38;;;4.60;;
42364;SDS011;28498;54.400;18.566;2023-04-19T13:40:40;11.32;;;3.75;;
42364;SDS011;28498;54.400;18.566;2023-04-19T13:43:07;9.32;;;3.75;;
42364;SDS011;28498;54.400;18.566;2023-04-19T13:45:34;14.13;;;4.18;;
42364;SDS011;28498;54.400;18.566;2023-04-19T13:48:01;12.60;;;4.43;;
42364;SDS011;28498;54.400;18.566;2023-04-19T13:50:28;13.95;;;4.55;;
42364;SDS011;28498;54.400;18.566;2023-04-19T13:52:55;12.52;;;4.05;;
42364;SDS011;28498;54.400;18.566;2023-04-19T13:55:22;11.55;;;5.22;;
42364;SDS011;28498;54.400;18.566;2023-04-19T13:57:49;15.90;;;5.45;;
42364;SDS011;28498;54.400;18.566;2023-04-19T14:00:16;9.50;;;4.10;;
42364;SDS011;28498;54.400;18.566;2023-04-19T14:02:44;16.35;;;6.20;;
42364;SDS011;28498;54.400;18.566;2023-04-19T14:05:11;9.80;;;3.92;;
42364;SDS011;28498;54.400;18.566;2023-04-19T14:07:38;9.30;;;4.40;;
42364;SDS011;28498;54.400;18.566;2023-04-19T14:10:06;7.95;;;4.07;;
42364;SDS011;28498;54.400;18.566;2023-04-19T14:12:34;13.40;;;4.55;;
42364;SDS011;28498;54.400;18.566;2023-04-19T14:15:01;16.23;;;6.18;;
42364;SDS011;28498;54.400;18.566;2023-04-19T14:17:29;9.32;;;4.55;;
42364;SDS011;28498;54.400;18.566;2023-04-19T14:19:56;7.15;;;3.72;;
42364;SDS011;28498;54.400;18.566;2023-04-19T14:22:23;8.13;;;3.72;;
42364;SDS011;28498;54.400;18.566;2023-04-19T14:24:50;9.23;;;3.92;;
42364;SDS011;28498;54.400;18.566;2023-04-19T14:27:17;11.10;;;3.97;;
42364;SDS011;28498;54.400;18.566;2023-04-19T14:29:44;7.78;;;3.53;;
42364;SDS011;28498;54.400;18.566;2023-04-19T14:32:11;12.65;;;4.25;;
42364;SDS011;28498;54.400;18.566;2023-04-19T14:34:51;8.15;;;3.78;;
42364;SDS011;28498;54.400;18.566;2023-04-19T14:37:19;12.02;;;5.03;;
42364;SDS011;28498;54.400;18.566;2023-04-19T14:39:47;10.73;;;4.55;;
42364;SDS011;28498;54.400;18.566;2023-04-19T14:42:14;9.90;;;3.45;;
42364;SDS011;28498;54.400;18.566;2023-04-19T14:44:41;10.15;;;4.18;;
42364;SDS011;28498;54.400;18.566;2023-04-19T14:47:09;13.30;;;4.18;;
42364;SDS011;28498;54.400;18.566;2023-04-19T14:49:36;9.38;;;3.90;;
42364;SDS011;28498;54.400;18.566;2023-04-19T14:52:03;10.07;;;3.80;;